Map

Track Data

SID SEASON NUMBER BASIN SUBBASIN NAME ISO_TIME NATURE LAT LON WMO_WIND WMO_PRES WMO_AGENCY TRACK_TYPE DIST2LAND LANDFALL IFLAG USA_AGENCY USA_ATCF_ID USA_LAT USA_LON USA_RECORD USA_STATUS USA_WIND USA_PRES USA_SSHS USA_R34_NE USA_R34_SE USA_R34_SW USA_R34_NW USA_R50_NE USA_R50_SE USA_R50_SW USA_R50_NW USA_R64_NE USA_R64_SE USA_R64_SW USA_R64_NW USA_POCI USA_ROCI USA_RMW USA_EYE TOKYO_LAT TOKYO_LON TOKYO_GRADE TOKYO_WIND TOKYO_PRES TOKYO_R50_DIR TOKYO_R50_LONG TOKYO_R50_SHORT TOKYO_R30_DIR TOKYO_R30_LONG TOKYO_R30_SHORT TOKYO_LAND CMA_LAT CMA_LON CMA_CAT CMA_WIND CMA_PRES HKO_LAT HKO_LON HKO_CAT HKO_WIND HKO_PRES NEWDELHI_LAT NEWDELHI_LON NEWDELHI_GRADE NEWDELHI_WIND NEWDELHI_PRES NEWDELHI_CI NEWDELHI_DP NEWDELHI_POCI REUNION_LAT REUNION_LON REUNION_TYPE REUNION_WIND REUNION_PRES REUNION_TNUM REUNION_CI REUNION_RMW REUNION_R34_NE REUNION_R34_SE REUNION_R34_SW REUNION_R34_NW REUNION_R50_NE REUNION_R50_SE REUNION_R50_SW REUNION_R50_NW REUNION_R64_NE REUNION_R64_SE REUNION_R64_SW REUNION_R64_NW BOM_LAT BOM_LON BOM_TYPE BOM_WIND BOM_PRES BOM_TNUM BOM_CI BOM_RMW BOM_R34_NE BOM_R34_SE BOM_R34_SW BOM_R34_NW BOM_R50_NE BOM_R50_SE BOM_R50_SW BOM_R50_NW BOM_R64_NE BOM_R64_SE BOM_R64_SW BOM_R64_NW BOM_ROCI BOM_POCI BOM_EYE BOM_POS_METHOD BOM_PRES_METHOD NADI_LAT NADI_LON NADI_CAT NADI_WIND NADI_PRES WELLINGTON_LAT WELLINGTON_LON WELLINGTON_WIND WELLINGTON_PRES DS824_LAT DS824_LON DS824_STAGE DS824_WIND DS824_PRES TD9636_LAT TD9636_LON TD9636_STAGE TD9636_WIND TD9636_PRES TD9635_LAT TD9635_LON TD9635_WIND TD9635_PRES TD9635_ROCI NEUMANN_LAT NEUMANN_LON NEUMANN_CLASS NEUMANN_WIND NEUMANN_PRES MLC_LAT MLC_LON MLC_CLASS MLC_WIND MLC_PRES USA_GUST BOM_GUST BOM_GUST_PER REUNION_GUST REUNION_GUST_PER USA_SEAHGT USA_SEARAD_NE USA_SEARAD_SE USA_SEARAD_SW USA_SEARAD_NW STORM_SPEED STORM_DIR
1995053S14065 1995 8 SI MM INGRID 1995-02-21 18:00:00 TS -13.7000 64.7000 main 1033 1017 O___________O_ jtwc_sh SH131995 -13.7000 64.7000 15 -1 -13.7000 64.7000 TC 15 4 0
1995053S14065 1995 8 SI MM INGRID 1995-02-21 21:00:00 TS -13.8875 64.7175 main 1017 1001 P___________P_ SH131995 -13.8875 64.7175 15 -1 -13.8875 64.7175 TC 15 4 0
1995053S14065 1995 8 SI MM INGRID 1995-02-22 00:00:00 TS -14.1000 64.7000 main 1001 978 O___________O_ jtwc_sh SH131995 -14.1000 64.7000 15 -1 -14.1000 64.7000 TC 15 5 191
1995053S14065 1995 8 SI MM INGRID 1995-02-22 03:00:00 TS -14.3500 64.6225 main 978 949 P___________P_ SH131995 -14.3500 64.6225 15 -1 -14.3500 64.6225 TC 15 6 188
1995053S14065 1995 8 SI MM INGRID 1995-02-22 06:00:00 TS -14.7222 64.6111 20 1004 reunion main 949 919 O____O______O_ jtwc_sh SH131995 -14.6000 64.5000 15 -1 -15.7000 65.5000 2 20 1004 1.50000 1.50000 -14.6000 64.5000 TC 15 7 190
1995053S14065 1995 8 SI MM INGRID 1995-02-22 09:00:00 TS -14.9885 64.5090 main 919 888 P____P______P_ SH131995 -14.8075 64.3575 17 -1 -15.7126 65.1151 2 20 1004 -14.8075 64.3575 TC 17 5 209
1995053S14065 1995 8 SI MM INGRID 1995-02-22 12:00:00 TS -15.1909 64.3364 20 1004 reunion main 888 864 O____O______O_ jtwc_sh SH131995 -15.0000 64.2000 20 -1 -15.7000 64.7000 2 20 1004 1.50000 1.50000 -15.0000 64.2000 TC 20 5 226
1995053S14065 1995 8 SI MM INGRID 1995-02-22 15:00:00 TS -15.3500 64.1241 main 864 834 P____P______P_ SH131995 -15.2000 64.0649 20 -1 -15.6500 64.2424 2 22 1003 -15.2000 64.0649 TC 20 5 239
1995053S14065 1995 8 SI MM INGRID 1995-02-22 18:00:00 TS -15.4667 63.8667 25 1002 reunion main 834 802 O____O______O_ jtwc_sh SH131995 -15.4000 63.9000 20 -1 -15.6000 63.8000 2 25 1002 2.00000 2.00000 -15.4000 63.9000 TC 20 6 244
1995053S14065 1995 8 SI MM INGRID 1995-02-22 21:00:00 TS -15.6000 63.5884 main 802 770 P____P______P_ SH131995 -15.6000 63.6575 20 -1 -15.5998 63.4501 2 25 1002 -15.6000 63.6575 TC 20 6 244
1995053S14065 1995 8 SI MM INGRID 1995-02-23 00:00:00 TS -15.7333 63.3000 25 1002 reunion main 770 738 O____O______O_ jtwc_sh SH131995 -15.8000 63.4000 20 -1 -15.6000 63.1000 2 25 1002 2.00000 2.00000 -15.8000 63.4000 TC 20 6 245
1995053S14065 1995 8 SI MM INGRID 1995-02-23 03:00:00 TS -15.8525 63.0216 main 731 707 P____P______P_ SH131995 -16.0074 63.2074 22 -1 -15.5426 62.6499 2 25 1001 -16.0074 63.2074 TC 22 6 247
1995053S14065 1995 8 SI MM INGRID 1995-02-23 06:00:00 TS -15.9667 62.7333 25 1000 reunion main 699 668 O____O______O_ jtwc_sh SH131995 -16.2000 63.0000 25 -1 -15.5000 62.2000 2 25 1000 2.00000 2.00000 -16.2000 63.0000 TC 25 6 249
1995053S14065 1995 8 SI MM INGRID 1995-02-23 09:00:00 TS -16.0808 62.4092 main 668 637 P____P______P_ SH131995 -16.3650 62.7075 25 -1 -15.5125 61.8125 2 25 1000 -16.3650 62.7075 TC 25 7 249
1995053S14065 1995 8 SI MM INGRID 1995-02-23 12:00:00 TS -16.2000 62.1000 25 1000 reunion main 637 614 O____O______O_ jtwc_sh SH131995 -16.5000 62.4000 25 -1 -15.6000 61.5000 2 25 1000 2.00000 2.00000 -16.5000 62.4000 TC 25 6 244
1995053S14065 1995 8 SI MM INGRID 1995-02-23 15:00:00 TS -16.3433 61.8492 main 606 575 P____P______P_ SH131995 -16.6150 62.1350 27 -1 -15.7999 61.2776 2 26 998 -16.6150 62.1350 TC 27 5 239
1995053S14065 1995 8 SI MM INGRID 1995-02-23 18:00:00 TS -16.4667 61.6333 28 997 reunion main 575 561 O____O______O_ jtwc_sh SH131995 -16.7000 61.9000 30 -1 -16.0000 61.1000 2 28 997 2.50000 2.50000 -16.7000 61.9000 TC 30 5 245
1995053S14065 1995 8 SI MM INGRID 1995-02-23 21:00:00 TS -16.5366 61.4258 main 561 538 P____P______P_ SH131995 -16.7650 61.6925 30 -1 -16.0800 60.8924 2 29 996 -16.7650 61.6925 TC 30 4 255
1995053S14065 1995 8 SI MM INGRID 1995-02-24 00:00:00 TS -16.5667 61.2333 30 995 reunion main 538 531 O____O______O_ jtwc_sh SH131995 -16.8000 61.5000 30 -1 -16.1000 60.7000 2 30 995 2.50000 2.50000 -16.8000 61.5000 TC 30 4 266
1995053S14065 1995 8 SI MM INGRID 1995-02-24 03:00:00 TS -16.5617 61.0425 main 524 517 P____P______P_ SH131995 -16.8075 61.3000 32 -1 -16.0700 60.5274 2 32 993 -16.8075 61.3000 TC 32 4 270
1995053S14065 1995 8 SI MM INGRID 1995-02-24 06:00:00 TS -16.5667 60.8667 35 992 reunion main 517 503 O____O______O_ jtwc_sh SH131995 -16.8000 61.1000 35 0 -16.1000 60.4000 3 35 992 3.00000 3.00000 -16.8000 61.1000 TC 35 3 256
1995053S14065 1995 8 SI MM INGRID 1995-02-24 09:00:00 TS -16.6400 60.7142 main 503 488 P____P______P_ SH131995 -16.8000 60.9000 37 0 -16.3200 60.3425 3 35 992 -16.8000 60.9000 TC 37 3 240
1995053S14065 1995 8 SI MM INGRID 1995-02-24 12:00:00 TS -16.7333 60.5667 35 992 reunion main 488 466 O____O______O_ jtwc_sh SH131995 -16.8000 60.7000 40 0 -16.6000 60.3000 3 35 992 3.00000 3.00000 -16.8000 60.7000 TC 40 3 242
1995053S14065 1995 8 SI MM INGRID 1995-02-24 15:00:00 TS -16.7975 60.4100 main 466 444 P____P______P_ SH131995 -16.7850 60.5074 42 0 -16.8225 60.2150 3 37 990 -16.7850 60.5074 TC 42 3 247
1995053S14065 1995 8 SI MM INGRID 1995-02-24 18:00:00 TS -16.8667 60.2333 40 988 reunion main 444 432 O____O______O_ jtwc_sh SH131995 -16.8000 60.3000 45 0 -17.0000 60.1000 3 40 988 3.00000 3.00000 -16.8000 60.3000 TC 45 4 247
1995053S14065 1995 8 SI MM INGRID 1995-02-24 21:00:00 TS -16.9542 60.0167 main 423 402 P____P______P_ SH131995 -16.8775 60.0500 47 0 -17.1075 59.9500 3 42 986 -16.8775 60.0500 TC 47 5 244
1995053S14065 1995 8 SI MM INGRID 1995-02-25 00:00:00 TS -17.0667 59.8000 45 984 reunion main 402 381 O____O______O_ jtwc_sh SH131995 -17.0000 59.8000 50 0 -17.2000 59.8000 3 45 984 3.50000 3.50000 -17.0000 59.8000 TC 50 5 238
1995053S14065 1995 8 SI MM INGRID 1995-02-25 03:00:00 TS -17.1942 59.6133 main 381 356 P____P______P_ SH131995 -17.1275 59.5775 50 0 -17.3275 59.6850 3 46 982 -17.1275 59.5775 TC 50 4 227
1995053S14065 1995 8 SI MM INGRID 1995-02-25 06:00:00 TS -17.3667 59.4667 48 980 reunion main 356 331 O____O______O_ jtwc_sh SH131995 -17.3000 59.4000 50 0 -17.5000 59.6000 3 48 980 3.50000 3.50000 -17.3000 59.4000 TC 50 5 210
1995053S14065 1995 8 SI MM INGRID 1995-02-25 09:00:00 TS -17.6016 59.3658 main 331 298 P____P______P_ SH131995 -17.5350 59.2775 52 0 -17.7350 59.5425 3 49 978 -17.5350 59.2775 TC 52 5 198
1995053S14065 1995 8 SI MM INGRID 1995-02-25 12:00:00 TS -17.8667 59.3000 50 976 reunion main 298 273 O____O______O_ jtwc_sh SH131995 -17.8000 59.2000 55 0 -18.0000 59.5000 3 50 976 4.00000 4.00000 -17.8000 59.2000 TC 55 5 192
1995053S14065 1995 8 SI MM INGRID 1995-02-25 15:00:00 TS -18.1167 59.2450 main 273 246 P____P______P_ SH131995 -18.0500 59.1425 57 0 -18.2500 59.4500 3 52 974 -18.0500 59.1425 TC 57 5 191
1995053S14065 1995 8 SI MM INGRID 1995-02-25 18:00:00 TS -18.3667 59.2000 55 972 reunion main 246 222 O____O______O_ jtwc_sh SH131995 -18.3000 59.1000 60 0 -18.5000 59.4000 3 55 972 4.00000 4.00000 -18.3000 59.1000 TC 60 5 191
1995053S14065 1995 8 SI MM INGRID 1995-02-25 21:00:00 TS -18.6117 59.1450 main 222 198 P____P______P_ SH131995 -18.5425 59.0425 62 0 -18.7500 59.3500 3 57 970 -18.5425 59.0425 TC 62 5 191
1995053S14065 1995 8 SI MM INGRID 1995-02-26 00:00:00 TS -18.8667 59.1000 60 968 reunion main 198 184 O____O______O_ jtwc_sh SH131995 -18.8000 59.0000 65 1 -19.0000 59.3000 3 60 968 4.50000 4.50000 -18.8000 59.0000 TC 65 5 188
1995053S14065 1995 8 SI MM INGRID 1995-02-26 03:00:00 TS -19.1375 59.0733 main 184 166 P____P______P_ SH131995 -19.0925 58.9925 67 1 -19.2275 59.2351 3 60 968 -19.0925 58.9925 TC 67 6 184
1995053S14065 1995 8 SI MM INGRID 1995-02-26 06:00:00 TS -19.4333 59.0667 60 968 reunion main 166 151 O____O______O_ jtwc_sh SH131995 -19.4000 59.0000 70 1 -19.5000 59.2000 3 60 968 4.50000 4.50000 -19.4000 59.0000 TC 70 6 179
1995053S14065 1995 8 SI MM INGRID 1995-02-26 09:00:00 TS -19.7567 59.0882 main 146 137 P____P______P_ SH131995 -19.6925 59.0000 72 1 -19.8850 59.2647 3 62 964 -19.6925 59.0000 TC 72 7 176
1995053S14065 1995 8 SI MM INGRID 1995-02-26 12:00:00 TS -20.1000 59.1000 65 960 reunion main 137 135 O____O______O_ jtwc_sh SH131995 -20.0000 59.0000 75 1 -20.3000 59.3000 4 65 960 5.00000 5.00000 -20.0000 59.0000 TC 75 7 182
1995053S14065 1995 8 SI MM INGRID 1995-02-26 15:00:00 TS -20.4450 59.0600 main 135 127 P____P______P_ SH131995 -20.3350 59.0074 75 1 -20.6651 59.1652 4 67 957 -20.3350 59.0074 TC 75 7 188
1995053S14065 1995 8 SI MM INGRID 1995-02-26 18:00:00 TS -20.8000 59.0000 70 955 reunion main 136 136 O____O______O_ jtwc_sh SH131995 -20.7000 59.0000 75 1 -21.0000 59.0000 4 70 955 5.00000 5.00000 -20.7000 59.0000 TC 75 7 188
1995053S14065 1995 8 SI MM INGRID 1995-02-26 21:00:00 TS -21.1567 58.9549 main 156 147 P____P______P_ SH131995 -21.0925 58.9650 77 1 -21.2850 58.9349 4 72 952 -21.0925 58.9650 TC 77 7 188
1995053S14065 1995 8 SI MM INGRID 1995-02-27 00:00:00 TS -21.5333 58.9000 75 950 reunion main 167 167 O____O______O_ jtwc_sh SH131995 -21.5000 58.9000 80 1 -21.6000 58.9000 4 75 950 5.00000 5.00000 -21.5000 58.9000 TC 80 8 191
1995053S14065 1995 8 SI MM INGRID 1995-02-27 03:00:00 TS -21.9500 58.7969 main 202 202 P____P______P_ SH131995 -21.9000 58.7852 85 2 -22.0500 58.8202 4 77 947 -21.9000 58.7852 TC 85 9 191
1995053S14065 1995 8 SI MM INGRID 1995-02-27 06:00:00 TS -22.3667 58.7333 80 945 reunion main 236 236 O____O______O_ jtwc_sh SH131995 -22.3000 58.7000 90 2 -22.5000 58.8000 4 80 945 5.50000 5.50000 -22.3000 58.7000 TC 90 8 180
1995053S14065 1995 8 SI MM INGRID 1995-02-27 09:00:00 TS -22.7383 58.7816 main 270 270 P____P______P_ SH131995 -22.7000 58.7125 92 2 -22.8150 58.9199 4 80 945 -22.7000 58.7125 TC 92 8 168
1995053S14065 1995 8 SI MM INGRID 1995-02-27 12:00:00 TS -23.1000 58.9000 80 945 reunion main 315 315 O____O______O_ jtwc_sh SH131995 -23.1000 58.8000 95 2 -23.1000 59.1000 4 80 945 5.00000 5.50000 -23.1000 58.8000 TC 95 8 163
1995053S14065 1995 8 SI MM INGRID 1995-02-27 15:00:00 TS -23.4858 59.0276 main 361 361 P____P______P_ SH131995 -23.5074 58.9126 95 2 -23.4425 59.2575 4 80 945 -23.5074 58.9126 TC 95 8 160
1995053S14065 1995 8 SI MM INGRID 1995-02-27 18:00:00 TS -23.8667 59.2000 80 945 reunion main 410 410 O____O______O_ jtwc_sh SH131995 -23.9000 59.1000 95 2 -23.8000 59.4000 4 80 945 5.00000 5.50000 -23.9000 59.1000 TC 95 8 154
1995053S14065 1995 8 SI MM INGRID 1995-02-27 21:00:00 TS -24.2267 59.4234 main 449 449 P____P______P_ SH131995 -24.2575 59.3775 97 3 -24.1650 59.5150 4 77 947 -24.2575 59.3775 TC 97 8 149
1995053S14065 1995 8 SI MM INGRID 1995-02-28 00:00:00 TS -24.5667 59.6667 75 950 reunion main 502 502 O____O______O_ jtwc_sh SH131995 -24.6000 59.7000 100 3 -24.5000 59.6000 4 75 950 4.50000 5.00000 -24.6000 59.7000 TC 100 8 148
1995053S14065 1995 8 SI MM INGRID 1995-02-28 03:00:00 TS -24.8807 59.8736 main 541 541 P____P______P_ SH131995 -24.9424 59.9928 97 3 -24.7574 59.6353 4 72 952 -24.9424 59.9928 TC 97 7 148
1995053S14065 1995 8 SI MM INGRID 1995-02-28 06:00:00 TS -25.2000 60.1000 70 955 reunion main 580 580 O____O______O_ jtwc_sh SH131995 -25.3000 60.3000 95 2 -25.0000 59.7000 4 70 955 4.00000 5.00000 -25.3000 60.3000 TC 95 8 146
1995053S14065 1995 8 SI MM INGRID 1995-02-28 09:00:00 TS -25.5440 60.3679 main 623 623 P____P______P_ SH131995 -25.6774 60.6279 92 2 -25.2774 59.8478 4 67 957 -25.6774 60.6279 TC 92 9 144
1995053S14065 1995 8 SI MM INGRID 1995-02-28 12:00:00 TS -25.9333 60.7000 65 960 reunion main 676 676 O____O______O_ jtwc_sh SH131995 -26.1000 61.0000 90 2 -25.6000 60.1000 4 65 960 3.50000 4.50000 -26.1000 61.0000 TC 90 10 142
1995053S14065 1995 8 SI MM INGRID 1995-02-28 15:00:00 TS -26.3597 61.0792 main 744 744 P____P______P_ SH131995 -26.5773 61.4130 85 2 -25.9244 60.4117 4 62 964 -26.5773 61.4130 TC 85 12 140
1995053S14065 1995 8 SI MM INGRID 1995-02-28 18:00:00 TS -26.8667 61.5667 60 968 reunion main 817 817 O____O______O_ jtwc_sh SH131995 -27.1000 61.9000 80 1 -26.4000 60.9000 3 60 968 3.00000 4.50000 -27.1000 61.9000 TC 80 15 137
1995053S14065 1995 8 SI MM INGRID 1995-02-28 21:00:00 TS -27.4553 62.2108 main 905 905 P____P______P_ SH131995 -27.6128 62.5003 75 1 -27.1403 61.6319 3 57 970 -27.6128 62.5003 TC 75 17 137
1995053S14065 1995 8 SI MM INGRID 1995-03-01 00:00:00 TS -28.1333 62.9000 55 972 reunion main 998 998 O____O______O_ jtwc_sh SH131995 -28.2000 63.1000 70 1 -28.0000 62.5000 3 55 972 2.50000 4.00000 -28.2000 63.1000 TC 70 19 141
1995053S14065 1995 8 SI MM INGRID 1995-03-01 03:00:00 TS -28.8952 63.5526 main 1111 1111 P____P______P_ SH131995 -28.9049 63.6026 65 1 -28.8760 63.4527 3 50 978 -28.9049 63.6026 TC 65 18 146
1995053S14065 1995 8 SI MM INGRID 1995-03-01 06:00:00 TS -29.6667 64.0667 45 985 reunion main 1212 1212 O____O______O_ jtwc_sh SH131995 -29.7000 64.0000 60 0 -29.6000 64.2000 3 45 985 2.00000 3.50000 -29.7000 64.0000 TC 60 16 155
1995053S14065 1995 8 SI MM INGRID 1995-03-01 09:00:00 TS -30.3402 64.3210 main 1278 1278 P____P______P_ SH131995 -30.5345 64.2518 55 0 -29.9515 64.4594 3 -30.5345 64.2518 TC 55 14 165
1995053S14065 1995 8 SI MM INGRID 1995-03-01 12:00:00 MX -31.0000 64.4667 reunion main 1355 1355 O____O______O_ jtwc_sh SH131995 -31.4000 64.5000 50 0 -30.2000 64.4000 5 9.90000 -31.4000 64.5000 TC 50 14 168
1995053S14065 1995 8 SI MM INGRID 1995-03-01 15:00:00 MX -31.7264 64.6634 main 1431 1431 P____P______P_ SH131995 -32.2645 64.8760 47 0 -30.6501 64.2382 5 -32.2645 64.8760 TC 47 13 166
1995053S14065 1995 8 SI MM INGRID 1995-03-01 18:00:00 MX -32.3000 64.8400 reunion main 1494 1494 O____O______O_ jtwc_sh SH131995 -33.1000 65.4000 45 0 -31.1000 64.0000 5 9.90000 -33.1000 65.4000 TC 45 10 165
1995053S14065 1995 8 SI MM INGRID 1995-03-01 21:00:00 MX -32.6507 64.9622 main 1542 1533 P____P______P_ SH131995 -33.8713 66.0970 42 0 -31.4300 63.8274 5 -33.8713 66.0970 TC 42 4 189
1995053S14065 1995 8 SI MM INGRID 1995-03-02 00:00:00 MX -32.6667 64.7667 reunion main 1533 1411 O____O______O_ jtwc_sh SH131995 -34.6000 66.9000 40 0 -31.7000 63.7000 5 9.90000 -34.6000 66.9000 TC 40 14 301
1995053S14065 1995 8 SI MM INGRID 1995-03-02 03:00:00 ET -31.9573 63.5679 main 1411 1397 _____P________ SH131995 -1 -31.9573 63.5679 5 TC 11 295
1995053S14065 1995 8 SI MM INGRID 1995-03-02 06:00:00 ET -32.2000 63.6000 reunion main 1431 1431 _____O________ -1 -32.2000 63.6000 5 9.90000 6 152
1995053S14065 1995 8 SI MM INGRID 1995-03-02 09:00:00 ET -32.4646 63.8798 main 1474 1474 _____P________ -1 -32.4646 63.8798 5 8 127
1995053S14065 1995 8 SI MM INGRID 1995-03-02 12:00:00 ET -32.7000 64.4000 reunion main 1515 1515 _____O________ -1 -32.7000 64.4000 5 9.90000 11 111
1995053S14065 1995 8 SI MM INGRID 1995-03-02 15:00:00 ET -32.8577 65.0905 main 1566 1566 _____P________ -1 -32.8577 65.0905 5 13 103
1995053S14065 1995 8 SI MM INGRID 1995-03-02 18:00:00 ET -33.0000 65.9000 reunion main 1614 1614 _____O________ -1 -33.0000 65.9000 5 9.90000 14 104
1995053S14065 1995 8 SI MM INGRID 1995-03-02 21:00:00 ET -33.1917 66.6703 main 1673 1673 _____P________ -1 -33.1917 66.6703 5 14 107
1995053S14065 1995 8 SI MM INGRID 1995-03-03 00:00:00 ET -33.4000 67.5000 reunion main 1717 1691 _____O________ -1 -33.4000 67.5000 5 9.90000 15 106
1995053S14065 1995 8 SI MM INGRID 1995-03-03 03:00:00 ET -33.6043 68.4216 main 1691 1668 _____P________ -1 -33.6043 68.4216 5 16 104
1995053S14065 1995 8 SI MM INGRID 1995-03-03 06:00:00 ET -33.8000 69.4000 reunion main 1669 _____O________ -1 -33.8000 69.4000 5 9.90000 17 104

About IBTrACS Database

This database is a web-friendly format of International Best Track Archive for Climate Stewardship (IBTrACS), a global best track data archive curated by NOAA dating back to 1842.

Updated: 2021-10-21